Time;durP1;ratioP1;P1;durP2;ratioP2;P2;SDS_P1;SDS_P2;PMS_P1;PMS_P2;Temp;Humidity;BMP_temperature;BMP_pressure;BME280_temperature;BME280_humidity;BME280_pressure;Samples;Min_cycle;Max_cycle;Signal;HPM_P1;HPM_P2
2024/04/02 00:00:33;;;;;;;;;;;;;;;7.42;100.00;94708.16;10486671;28;2730;-73
2024/04/02 00:05:35;;;;;;;;;;;;;;;7.39;100.00;94714.06;10448090;28;2814;-70
2024/04/02 00:10:37;;;;;;;;;;;;;;;7.37;100.00;94719.69;10477071;28;2833;-70
2024/04/02 00:15:39;;;;;;;;;;;;;;;7.37;100.00;94724.22;10464822;28;2852;-71
2024/04/02 00:20:41;;;;;;;;;;;;;;;7.36;100.00;94731.44;10481260;28;2810;-69
2024/04/02 00:25:43;;;;;;;;;;;;;;;7.36;100.00;94731.44;10462484;28;2867;-71
2024/04/02 00:30:45;;;;;;;;;;;;;;;7.44;100.00;94736.19;10462325;28;2822;-70
2024/04/02 00:35:47;;;;;;;;;;;;;;;7.53;100.00;94736.41;10462104;28;2758;-69
2024/04/02 00:40:49;;;;;;;;;;;;;;;7.53;100.00;94750.59;10464362;28;2684;-68
2024/04/02 00:45:50;;;;;;;;;;;;;;;7.56;100.00;94755.34;10463044;28;2788;-69
2024/04/02 00:50:52;;;;;;;;;;;;;;;7.59;100.00;94760.16;10479600;28;2766;-69
2024/04/02 00:55:54;;;;;;;;;;;;;;;7.63;100.00;94765.75;10446184;28;2734;-70
2024/04/02 01:00:57;;;;;;;;;;;;;;;7.70;100.00;94771.59;10470212;28;2818;-73
2024/04/02 01:05:59;;;;;;;;;;;;;;;7.74;100.00;94769.13;10463163;28;2850;-70
2024/04/02 01:11:01;;;;;;;;;;;;;;;7.77;100.00;94776.63;10461931;28;2867;-69
2024/04/02 01:16:03;;;;;;;;;;;;;;;7.76;100.00;94783.03;10478784;28;2860;-73
2024/04/02 01:21:05;;;;;;;;;;;;;;;7.76;100.00;94788.38;10463867;28;2864;-69
2024/04/02 01:26:06;;;;;;;;;;;;;;;7.81;100.00;94815.09;10463497;28;2849;-72
2024/04/02 01:31:11;;;;;;;;;;;;;;;7.84;100.00;94810.00;10462133;28;2808;-69
2024/04/02 01:36:13;;;;;;;;;;;;;;;7.84;100.00;94817.22;10461219;28;2781;-73
2024/04/02 01:41:14;;;;;;;;;;;;;;;7.84;100.00;94814.56;10459143;28;2649;-76
2024/04/02 01:46:16;;;;;;;;;;;;;;;7.87;100.00;94816.66;10462015;28;2593;-71
2024/04/02 01:51:18;;;;;;;;;;;;;;;7.88;100.00;94820.94;10439677;28;2662;-70
2024/04/02 01:56:19;;;;;;;;;;;;;;;7.84;100.00;94835.97;10421704;28;2807;-71
2024/04/02 02:01:21;;;;;;;;;;;;;;;7.82;100.00;94846.94;10419790;28;2885;-70
2024/04/02 02:06:23;;;;;;;;;;;;;;;7.77;100.00;94840.81;10402512;28;2867;-72
2024/04/02 02:11:25;;;;;;;;;;;;;;;7.79;100.00;94838.66;10419027;28;2774;-70
2024/04/02 02:16:27;;;;;;;;;;;;;;;7.75;100.00;94851.00;10418725;28;2883;-69
2024/04/02 02:21:29;;;;;;;;;;;;;;;7.69;100.00;94865.47;10410542;28;2804;-69
2024/04/02 02:26:34;;;;;;;;;;;;;;;7.52;100.00;94872.00;10412875;28;2799;-72
2024/04/02 02:31:38;;;;;;;;;;;;;;;7.53;100.00;94870.13;10417436;28;2792;-71
2024/04/02 02:36:40;;;;;;;;;;;;;;;7.54;100.00;94877.88;10429628;28;2797;-70
2024/04/02 02:41:41;;;;;;;;;;;;;;;7.52;100.00;94888.03;10415955;28;2732;-70
2024/04/02 02:46:43;;;;;;;;;;;;;;;7.55;100.00;94900.84;10419358;28;2548;-69
2024/04/02 02:51:45;;;;;;;;;;;;;;;7.56;100.00;94894.44;10442834;28;2727;-69
2024/04/02 02:56:47;;;;;;;;;;;;;;;7.64;100.00;94900.31;10472243;28;2824;-69
2024/04/02 03:01:49;;;;;;;;;;;;;;;7.65;100.00;94907.25;10458048;28;2861;-69
2024/04/02 03:06:51;;;;;;;;;;;;;;;7.71;100.00;94904.25;10459377;28;2806;-69
2024/04/02 03:11:53;;;;;;;;;;;;;;;7.65;100.00;94907.25;10459160;28;2775;-68
2024/04/02 03:16:54;;;;;;;;;;;;;;;7.59;100.00;94926.00;10457886;28;2736;-70
2024/04/02 03:21:57;;;;;;;;;;;;;;;7.54;100.00;94927.88;10458706;28;2882;-69
2024/04/02 03:26:58;;;;;;;;;;;;;;;7.60;100.00;94932.13;10457064;28;2743;-69
2024/04/02 03:32:00;;;;;;;;;;;;;;;7.64;100.00;94935.88;10471112;28;2778;-68
2024/04/02 03:37:02;;;;;;;;;;;;;;;7.68;100.00;94938.78;10470600;28;2813;-71
2024/04/02 03:42:04;;;;;;;;;;;;;;;7.66;100.00;94943.59;10465564;28;2901;-70
2024/04/02 03:47:06;;;;;;;;;;;;;;;7.56;100.00;94942.56;10464447;28;2786;-69
2024/04/02 03:52:07;;;;;;;;;;;;;;;7.55;100.00;94948.19;10468550;28;2852;-68
2024/04/02 03:57:09;;;;;;;;;;;;;;;7.52;100.00;94959.47;10458167;28;3010;-73
2024/04/02 04:02:11;;;;;;;;;;;;;;;7.52;100.00;94962.13;10461933;28;2858;-71
2024/04/02 04:07:12;;;;;;;;;;;;;;;7.47;100.00;94957.59;10478075;28;2367;-70
2024/04/02 04:12:14;;;;;;;;;;;;;;;7.49;100.00;94962.66;10469821;28;2805;-72
2024/04/02 04:17:16;;;;;;;;;;;;;;;7.43;100.00;94967.22;10468563;28;2899;-69
2024/04/02 04:22:18;;;;;;;;;;;;;;;7.38;100.00;94977.97;10483095;28;2843;-72
2024/04/02 04:27:19;;;;;;;;;;;;;;;7.36;100.00;94977.41;10483244;28;2833;-70
2024/04/02 04:32:21;;;;;;;;;;;;;;;7.34;100.00;94976.91;10463393;28;2757;-71
2024/04/02 04:37:23;;;;;;;;;;;;;;;7.36;100.00;94995.34;10466857;28;2901;-71
2024/04/02 04:42:29;;;;;;;;;;;;;;;7.38;100.00;95003.88;10482539;28;2785;-71
2024/04/02 04:47:39;;;;;;;;;;;;;;;7.38;100.00;95004.69;10476993;28;2797;-69
2024/04/02 04:52:40;;;;;;;;;;;;;;;7.45;100.00;95021.25;10460281;28;2942;-72
2024/04/02 04:57:42;;;;;;;;;;;;;;;7.43;100.00;95011.88;10461322;28;2882;-70
2024/04/02 05:02:43;;;;;;;;;;;;;;;7.37;100.00;95012.97;10462115;28;2730;-69
2024/04/02 05:07:45;;;;;;;;;;;;;;;7.44;100.00;95016.94;10453582;28;2780;-70
2024/04/02 05:12:46;;;;;;;;;;;;;;;7.50;100.00;95013.19;10467439;28;2941;-69
2024/04/02 05:17:48;;;;;;;;;;;;;;;7.58;100.00;95025.22;10464235;28;2832;-72
2024/04/02 05:22:51;;;;;;;;;;;;;;;7.63;100.00;95027.84;10472941;28;2948;-74
2024/04/02 05:27:53;;;;;;;;;;;;;;;7.74;100.00;95036.66;10453988;28;2898;-72
2024/04/02 05:32:55;;;;;;;;;;;;;;;7.74;100.00;95039.34;10457568;28;2824;-72
2024/04/02 05:37:57;;;;;;;;;;;;;;;7.85;100.00;95031.00;10462189;28;2812;-78
2024/04/02 05:42:58;;;;;;;;;;;;;;;7.91;100.00;95045.16;10460371;28;2885;-72
2024/04/02 05:48:00;;;;;;;;;;;;;;;7.97;100.00;95054.78;10458270;28;2617;-69
2024/04/02 05:53:05;;;;;;;;;;;;;;;8.04;100.00;95046.44;10470242;28;2803;-70
2024/04/02 05:58:06;;;;;;;;;;;;;;;8.04;100.00;95057.94;10456042;28;2921;-68
2024/04/02 06:03:08;;;;;;;;;;;;;;;7.84;100.00;95056.16;10471920;28;2867;-67
2024/04/02 06:08:10;;;;;;;;;;;;;;;7.65;100.00;95051.69;10464160;28;2742;-67
2024/04/02 06:13:11;;;;;;;;;;;;;;;7.72;100.00;95062.91;10437324;28;2907;-66
2024/04/02 06:18:12;;;;;;;;;;;;;;;8.16;100.00;95056.84;10456930;28;2800;-69
2024/04/02 06:23:14;;;;;;;;;;;;;;;8.33;100.00;95062.59;10450558;28;2924;-67
2024/04/02 06:28:16;;;;;;;;;;;;;;;8.75;100.00;95058.63;10457982;28;2857;-68
2024/04/02 06:33:23;;;;;;;;;;;;;;;9.11;100.00;95062.66;10474472;28;2730;-69
2024/04/02 06:38:25;;;;;;;;;;;;;;;9.44;100.00;95058.31;10461641;28;2674;-69
2024/04/02 06:43:27;;;;;;;;;;;;;;;9.56;100.00;95057.94;10458017;28;2798;-68
2024/04/02 06:48:29;;;;;;;;;;;;;;;9.16;100.00;95065.28;10465905;28;2584;-70
2024/04/02 06:53:30;;;;;;;;;;;;;;;9.09;100.00;95054.06;10442271;28;2667;-69
2024/04/02 06:58:32;;;;;;;;;;;;;;;9.00;100.00;95084.44;10454000;28;2824;-70
2024/04/02 07:03:37;;;;;;;;;;;;;;;9.12;100.00;95082.22;10464093;28;2975;-68
2024/04/02 07:08:40;;;;;;;;;;;;;;;9.14;100.00;95099.59;10481309;28;2914;-70
2024/04/02 07:13:42;;;;;;;;;;;;;;;9.66;100.00;95100.75;10477951;28;2972;-69
2024/04/02 07:18:47;;;;;;;;;;;;;;;9.89;100.00;95112.59;10477087;28;2969;-72
2024/04/02 07:23:48;;;;;;;;;;;;;;;9.26;100.00;95117.22;10478357;28;2798;-70
2024/04/02 07:28:50;;;;;;;;;;;;;;;9.69;100.00;95104.75;10474193;28;2499;-70
2024/04/02 07:33:54;;;;;;;;;;;;;;;10.20;100.00;95120.31;10481413;28;2955;-70
2024/04/02 07:38:56;;;;;;;;;;;;;;;10.34;100.00;95125.81;10474544;28;2761;-71
2024/04/02 07:43:58;;;;;;;;;;;;;;;10.02;100.00;95119.97;10478678;28;2854;-75
2024/04/02 07:49:00;;;;;;;;;;;;;;;9.65;100.00;95125.97;10480391;28;2779;-70
2024/04/02 07:54:04;;;;;;;;;;;;;;;9.75;100.00;95130.47;10477964;28;2877;-69
2024/04/02 07:59:06;;;;;;;;;;;;;;;10.15;100.00;95129.22;10486395;28;2885;-71
2024/04/02 08:04:09;;;;;;;;;;;;;;;10.27;100.00;95136.91;10464710;28;2829;-70
2024/04/02 08:09:11;;;;;;;;;;;;;;;10.86;100.00;95149.03;10474841;28;2928;-70
2024/04/02 08:14:14;;;;;;;;;;;;;;;11.03;100.00;95149.34;10489468;28;2782;-70
2024/04/02 08:19:16;;;;;;;;;;;;;;;11.04;100.00;95144.75;10488718;28;2925;-69
2024/04/02 08:24:19;;;;;;;;;;;;;;;11.12;100.00;95152.16;10476815;28;2946;-70
2024/04/02 08:29:22;;;;;;;;;;;;;;;11.47;100.00;95163.50;10462141;28;2903;-70
2024/04/02 08:34:26;;;;;;;;;;;;;;;11.66;100.00;95160.75;10472754;28;2780;-70
2024/04/02 08:39:32;;;;;;;;;;;;;;;11.55;100.00;95185.13;10435931;28;2845;-71
2024/04/02 08:44:41;;;;;;;;;;;;;;;11.21;100.00;95198.84;10486398;28;2865;-72
2024/04/02 08:49:43;;;;;;;;;;;;;;;11.15;100.00;95186.56;10474794;28;2859;-67
2024/04/02 08:54:48;;;;;;;;;;;;;;;11.16;100.00;95201.63;10450763;28;2899;-69
2024/04/02 08:59:52;;;;;;;;;;;;;;;11.19;100.00;95219.84;10470301;28;2817;-71
2024/04/02 09:04:54;;;;;;;;;;;;;;;10.64;100.00;95222.19;10484774;28;2692;-71
2024/04/02 09:09:58;;;;;;;;;;;;;;;10.72;100.00;95244.94;10494873;28;2774;-69
2024/04/02 09:15:01;;;;;;;;;;;;;;;10.61;100.00;95244.25;10483108;28;2778;-68
2024/04/02 09:20:03;;;;;;;;;;;;;;;10.47;100.00;95232.59;10470392;28;2377;-70
2024/04/02 09:25:11;;;;;;;;;;;;;;;10.45;100.00;95251.69;10520415;22;2901;-70
2024/04/02 09:30:13;;;;;;;;;;;;;;;10.88;100.00;95238.31;10492131;28;2839;-70
2024/04/02 09:35:18;;;;;;;;;;;;;;;10.87;100.00;95238.56;10507404;28;2842;-67
2024/04/02 09:40:19;;;;;;;;;;;;;;;11.20;100.00;95251.06;10501525;28;2865;-70
2024/04/02 09:45:23;;;;;;;;;;;;;;;10.91;100.00;95253.06;10507599;28;2755;-70
2024/04/02 09:50:26;;;;;;;;;;;;;;;10.88;100.00;95250.91;10496602;28;2795;-71
2024/04/02 09:55:28;;;;;;;;;;;;;;;11.42;100.00;95250.47;10528380;28;2823;-69
2024/04/02 10:00:30;;;;;;;;;;;;;;;11.88;100.00;95253.28;10514442;28;2769;-69
2024/04/02 10:05:32;;;;;;;;;;;;;;;11.56;100.00;95245.16;10507479;28;2867;-69
2024/04/02 10:10:33;;;;;;;;;;;;;;;11.60;100.00;95254.25;10510037;28;2922;-72
2024/04/02 10:15:35;;;;;;;;;;;;;;;11.46;100.00;95250.72;10489692;28;2743;-68
2024/04/02 10:20:36;;;;;;;;;;;;;;;11.62;100.00;95231.31;10486474;28;2874;-69
2024/04/02 10:25:38;;;;;;;;;;;;;;;11.46;100.00;95226.47;10492891;28;2857;-69
2024/04/02 10:30:39;;;;;;;;;;;;;;;11.25;100.00;95236.72;10511849;28;2847;-70
2024/04/02 10:35:41;;;;;;;;;;;;;;;11.62;100.00;95227.84;10501712;28;2867;-70
2024/04/02 10:40:43;;;;;;;;;;;;;;;11.93;100.00;95224.69;10501669;28;2799;-69
2024/04/02 10:45:44;;;;;;;;;;;;;;;12.17;100.00;95228.84;10490445;28;2772;-69
2024/04/02 10:50:46;;;;;;;;;;;;;;;12.03;100.00;95229.91;10497537;28;2706;-67
2024/04/02 10:55:47;;;;;;;;;;;;;;;12.49;100.00;95226.38;10519858;28;2925;-70
2024/04/02 11:00:49;;;;;;;;;;;;;;;13.40;94.03;95204.81;10508432;28;2636;-68
2024/04/02 11:05:51;;;;;;;;;;;;;;;13.69;84.71;95205.22;10483900;28;2752;-71
2024/04/02 11:10:53;;;;;;;;;;;;;;;13.77;79.65;95214.47;10501784;28;2801;-73
2024/04/02 11:15:54;;;;;;;;;;;;;;;13.74;74.12;95206.97;10511703;28;2889;-69
2024/04/02 11:20:57;;;;;;;;;;;;;;;13.99;75.94;95211.75;10513700;28;2801;-72
2024/04/02 11:25:59;;;;;;;;;;;;;;;13.20;68.70;95208.75;10514583;28;2824;-71
2024/04/02 11:31:05;;;;;;;;;;;;;;;13.02;68.00;95201.59;10512847;28;2969;-71
2024/04/02 11:36:07;;;;;;;;;;;;;;;13.55;69.38;95200.97;10527510;28;2907;-72
2024/04/02 11:41:09;;;;;;;;;;;;;;;13.83;65.51;95210.56;10522543;28;2705;-72
2024/04/02 11:46:11;;;;;;;;;;;;;;;13.83;65.16;95224.06;10526211;28;2599;-70
2024/04/02 11:51:13;;;;;;;;;;;;;;;14.05;63.20;95218.63;10519566;28;2874;-71
2024/04/02 11:56:15;;;;;;;;;;;;;;;13.74;64.17;95225.88;10517999;28;2615;-70
2024/04/02 12:01:17;;;;;;;;;;;;;;;13.75;63.52;95208.59;10513790;28;2858;-71
2024/04/02 12:06:22;;;;;;;;;;;;;;;13.82;62.94;95218.97;10519038;28;2312;-71
2024/04/02 12:11:24;;;;;;;;;;;;;;;14.00;62.81;95213.38;10507715;28;2740;-69
2024/04/02 12:16:33;;;;;;;;;;;;;;;13.97;62.26;95221.28;10513912;28;2867;-68
2024/04/02 12:21:36;;;;;;;;;;;;;;;14.21;63.44;95226.38;10507409;28;2626;-69
2024/04/02 12:26:37;;;;;;;;;;;;;;;13.72;63.20;95222.69;10530198;28;2846;-73
2024/04/02 12:31:38;;;;;;;;;;;;;;;14.03;63.17;95214.66;10515334;28;2829;-70
2024/04/02 12:36:41;;;;;;;;;;;;;;;13.89;65.86;95230.94;10517815;28;2788;-71
2024/04/02 12:41:46;;;;;;;;;;;;;;;13.87;64.84;95222.34;10485880;28;2547;-70
2024/04/02 12:46:51;;;;;;;;;;;;;;;13.72;65.10;95220.78;10513998;28;2870;-71
2024/04/02 12:51:53;;;;;;;;;;;;;;;13.68;67.75;95229.84;10526269;28;2877;-72
2024/04/02 12:56:55;;;;;;;;;;;;;;;13.58;68.89;95230.84;10524178;28;2535;-70
2024/04/02 13:01:56;;;;;;;;;;;;;;;13.53;68.99;95229.06;10519873;28;2741;-70
2024/04/02 13:07:00;;;;;;;;;;;;;;;12.78;78.78;95234.97;10522788;28;2779;-69
2024/04/02 13:12:04;;;;;;;;;;;;;;;13.29;82.04;95239.31;10582764;22;2572;-70
2024/04/02 13:17:11;;;;;;;;;;;;;;;13.78;63.47;95213.38;10443593;22;2898;-68
2024/04/02 13:22:15;;;;;;;;;;;;;;;13.66;63.42;95235.53;10423602;28;2344;-72
2024/04/02 13:27:18;;;;;;;;;;;;;;;13.55;62.06;95231.47;10424600;28;2850;-71
2024/04/02 13:32:19;;;;;;;;;;;;;;;13.65;64.32;95225.84;10434903;28;2565;-70
2024/04/02 13:37:21;;;;;;;;;;;;;;;13.22;74.41;95228.94;10437923;28;2904;-71
2024/04/02 13:42:24;;;;;;;;;;;;;;;13.86;71.87;95236.94;10407575;28;2596;-71
2024/04/02 13:47:30;;;;;;;;;;;;;;;13.69;70.25;95231.44;10389909;28;2850;-69
2024/04/02 13:52:33;;;;;;;;;;;;;;;13.72;70.77;95233.50;10426021;28;2888;-70
2024/04/02 13:57:39;;;;;;;;;;;;;;;13.49;72.13;95230.00;10423421;28;2842;-68
2024/04/02 14:02:41;;;;;;;;;;;;;;;13.02;69.62;95212.38;10419899;28;2828;-72
2024/04/02 14:07:43;;;;;;;;;;;;;;;13.22;67.44;95204.66;10429021;28;2801;-72
2024/04/02 14:12:45;;;;;;;;;;;;;;;13.36;65.51;95218.16;10405404;28;2366;-71
2024/04/02 14:17:51;;;;;;;;;;;;;;;12.90;71.10;95221.78;10447684;28;2791;-71
2024/04/02 14:22:53;;;;;;;;;;;;;;;12.85;76.26;95219.19;10432700;28;2808;-71
2024/04/02 14:27:55;;;;;;;;;;;;;;;12.47;82.72;95239.34;10432181;28;2809;-71
2024/04/02 14:32:56;;;;;;;;;;;;;;;13.04;82.39;95215.56;10437802;28;2811;-73
2024/04/02 14:37:58;;;;;;;;;;;;;;;13.14;82.37;95220.75;10400736;28;2867;-72
2024/04/02 14:43:00;;;;;;;;;;;;;;;13.65;71.43;95219.63;10392812;28;2816;-76
2024/04/02 14:48:01;;;;;;;;;;;;;;;13.51;75.52;95223.19;10407763;28;2780;-73
2024/04/02 14:53:03;;;;;;;;;;;;;;;13.39;73.45;95220.22;10418723;28;2748;-72
2024/04/02 14:58:06;;;;;;;;;;;;;;;14.02;71.92;95240.88;10401925;28;2905;-73
2024/04/02 15:03:07;;;;;;;;;;;;;;;13.71;73.90;95235.41;10421601;28;2820;-74
2024/04/02 15:08:09;;;;;;;;;;;;;;;13.82;75.85;95246.00;10393224;28;2824;-71
2024/04/02 15:13:10;;;;;;;;;;;;;;;13.92;74.97;95241.13;10407021;28;2855;-72
2024/04/02 15:18:12;;;;;;;;;;;;;;;13.52;74.74;95229.38;10404266;28;2845;-73
2024/04/02 15:23:16;;;;;;;;;;;;;;;13.42;75.41;95226.91;10405894;28;2666;-70
2024/04/02 15:28:18;;;;;;;;;;;;;;;13.33;71.30;95226.84;10407728;28;2634;-71
2024/04/02 15:33:19;;;;;;;;;;;;;;;13.48;74.48;95233.78;10416411;28;2836;-71
2024/04/02 15:38:21;;;;;;;;;;;;;;;13.40;74.56;95221.81;10412755;28;2909;-71
2024/04/02 15:43:22;;;;;;;;;;;;;;;13.10;77.05;95231.34;10412038;28;2808;-70
2024/04/02 15:48:24;;;;;;;;;;;;;;;12.96;78.86;95222.47;10427420;28;2880;-69
2024/04/02 15:53:26;;;;;;;;;;;;;;;12.54;72.71;95223.59;10398842;28;2791;-71
2024/04/02 15:58:28;;;;;;;;;;;;;;;12.30;69.91;95232.66;10415777;28;2655;-70
2024/04/02 16:03:29;;;;;;;;;;;;;;;12.10;67.70;95235.72;10429565;28;2872;-72
2024/04/02 16:08:31;;;;;;;;;;;;;;;11.96;70.72;95237.56;10411266;28;2546;-69
2024/04/02 16:13:32;;;;;;;;;;;;;;;11.86;73.66;95236.63;10412588;28;2665;-71
2024/04/02 16:18:34;;;;;;;;;;;;;;;11.76;75.17;95200.97;10412301;28;2947;-69
2024/04/02 16:23:36;;;;;;;;;;;;;;;11.68;79.21;95218.59;10410564;28;2754;-73
2024/04/02 16:28:38;;;;;;;;;;;;;;;11.54;83.17;95223.13;10414283;28;2866;-72
2024/04/02 16:33:39;;;;;;;;;;;;;;;11.50;85.14;95219.41;10413392;28;2819;-75
2024/04/02 16:38:41;;;;;;;;;;;;;;;11.46;84.22;95199.56;10391587;28;2824;-69
2024/04/02 16:43:42;;;;;;;;;;;;;;;11.37;86.27;95212.88;10410627;28;2816;-73
2024/04/02 16:48:44;;;;;;;;;;;;;;;11.29;90.46;95217.03;10412806;28;2352;-76
2024/04/02 16:53:46;;;;;;;;;;;;;;;11.15;94.81;95221.53;10412060;28;2709;-71
2024/04/02 16:58:47;;;;;;;;;;;;;;;11.12;98.60;95211.34;10415009;28;2965;-74
2024/04/02 17:03:49;;;;;;;;;;;;;;;11.08;99.73;95231.84;10412156;28;2689;-69
2024/04/02 17:08:51;;;;;;;;;;;;;;;10.93;100.00;95218.59;10409994;28;2864;-72
2024/04/02 17:13:56;;;;;;;;;;;;;;;10.92;100.00;95195.50;10417860;28;2847;-71
2024/04/02 17:18:58;;;;;;;;;;;;;;;10.82;100.00;95224.13;10412291;28;2857;-70
2024/04/02 17:24:00;;;;;;;;;;;;;;;10.76;100.00;95219.91;10410257;28;2837;-73
2024/04/02 17:29:02;;;;;;;;;;;;;;;10.67;100.00;95229.66;10421701;28;2820;-73
2024/04/02 17:34:03;;;;;;;;;;;;;;;10.55;100.00;95235.44;10423614;28;2772;-73
2024/04/02 17:39:05;;;;;;;;;;;;;;;10.37;100.00;95227.31;10409493;28;2784;-72
2024/04/02 17:44:06;;;;;;;;;;;;;;;10.29;100.00;95248.34;10403702;28;2877;-73
2024/04/02 17:49:08;;;;;;;;;;;;;;;10.23;100.00;95241.44;10410437;28;2826;-76
2024/04/02 17:54:10;;;;;;;;;;;;;;;10.12;100.00;95237.22;10420931;28;2629;-71
2024/04/02 17:59:12;;;;;;;;;;;;;;;10.02;100.00;95248.06;10402555;28;2370;-71
2024/04/02 18:04:14;;;;;;;;;;;;;;;9.79;100.00;95248.78;10439032;28;2784;-72
2024/04/02 18:09:16;;;;;;;;;;;;;;;9.74;100.00;95257.69;10412800;28;2811;-72
2024/04/02 18:14:19;;;;;;;;;;;;;;;9.65;100.00;95265.53;10406162;28;2794;-73
2024/04/02 18:19:21;;;;;;;;;;;;;;;9.63;100.00;95266.91;10405783;28;2816;-73
2024/04/02 18:24:22;;;;;;;;;;;;;;;9.46;100.00;95267.28;10406188;28;2777;-72
2024/04/02 18:29:24;;;;;;;;;;;;;;;9.29;100.00;95277.56;10408959;28;2583;-71
2024/04/02 18:34:26;;;;;;;;;;;;;;;9.30;100.00;95273.84;10381176;28;2824;-75
2024/04/02 18:39:28;;;;;;;;;;;;;;;9.14;100.00;95284.63;10388232;28;2819;-73
2024/04/02 18:44:30;;;;;;;;;;;;;;;9.04;100.00;95299.97;10385309;28;2959;-75
2024/04/02 18:49:32;;;;;;;;;;;;;;;8.92;100.00;95294.94;10374098;28;2953;-74
2024/04/02 18:54:34;;;;;;;;;;;;;;;8.94;100.00;95303.50;10356564;28;2765;-74
2024/04/02 18:59:36;;;;;;;;;;;;;;;8.76;100.00;95302.22;10378943;28;2320;-76
2024/04/02 19:04:38;;;;;;;;;;;;;;;8.63;100.00;95308.94;10376057;28;2833;-73
2024/04/02 19:09:39;;;;;;;;;;;;;;;8.48;100.00;95302.84;10368713;28;2684;-74
2024/04/02 19:14:42;;;;;;;;;;;;;;;8.44;100.00;95294.53;10381607;28;2833;-72
2024/04/02 19:19:45;;;;;;;;;;;;;;;8.35;100.00;95296.97;10370996;28;2753;-74
2024/04/02 19:24:46;;;;;;;;;;;;;;;8.23;100.00;95304.44;10388665;28;2740;-74
2024/04/02 19:29:49;;;;;;;;;;;;;;;8.18;100.00;95300.97;10402260;28;2854;-72
2024/04/02 19:34:51;;;;;;;;;;;;;;;8.25;100.00;95301.50;10390921;28;2880;-73
2024/04/02 19:39:52;;;;;;;;;;;;;;;8.27;100.00;95304.69;10401262;28;2745;-75
2024/04/02 19:44:54;;;;;;;;;;;;;;;8.13;100.00;95302.56;10416285;28;2974;-76
2024/04/02 19:49:56;;;;;;;;;;;;;;;8.19;100.00;95297.22;10421420;28;2849;-74
2024/04/02 19:54:57;;;;;;;;;;;;;;;8.06;100.00;95304.72;10400241;28;2605;-75
2024/04/02 20:00:01;;;;;;;;;;;;;;;8.10;100.00;95307.69;10411248;28;2963;-74
2024/04/02 20:05:03;;;;;;;;;;;;;;;8.18;100.00;95307.13;10421334;28;2708;-74
2024/04/02 20:10:05;;;;;;;;;;;;;;;8.12;100.00;95317.03;10416002;28;2614;-74
2024/04/02 20:15:07;;;;;;;;;;;;;;;8.07;100.00;95317.03;10417953;28;2870;-73
2024/04/02 20:20:10;;;;;;;;;;;;;;;7.93;100.00;95320.53;10416608;28;2865;-77
2024/04/02 20:25:12;;;;;;;;;;;;;;;7.92;100.00;95322.41;10416317;28;2850;-76
2024/04/02 20:30:13;;;;;;;;;;;;;;;7.78;100.00;95310.63;10417316;28;2591;-76
2024/04/02 20:35:16;;;;;;;;;;;;;;;7.84;100.00;95313.03;10420051;28;3019;-75
2024/04/02 20:40:18;;;;;;;;;;;;;;;7.70;100.00;95311.97;10398740;28;2856;-77
2024/04/02 20:45:20;;;;;;;;;;;;;;;7.66;100.00;95308.22;10409474;28;2829;-75
2024/04/02 20:50:22;;;;;;;;;;;;;;;7.54;100.00;95311.13;10408975;28;2771;-73
2024/04/02 20:55:24;;;;;;;;;;;;;;;7.51;100.00;95303.66;10414951;28;2587;-75
2024/04/02 21:00:25;;;;;;;;;;;;;;;7.56;100.00;95300.16;10413751;28;2699;-74
2024/04/02 21:05:27;;;;;;;;;;;;;;;7.49;100.00;95305.78;10410201;28;2909;-75
2024/04/02 21:10:28;;;;;;;;;;;;;;;7.45;100.00;95317.28;10412766;28;2574;-74
2024/04/02 21:15:30;;;;;;;;;;;;;;;7.39;100.00;95321.81;10414699;28;2836;-76
2024/04/02 21:20:31;;;;;;;;;;;;;;;7.81;100.00;95324.25;10413133;28;2862;-70
2024/04/02 21:25:34;;;;;;;;;;;;;;;7.86;100.00;95320.78;10397446;28;2833;-73
2024/04/02 21:30:36;;;;;;;;;;;;;;;7.85;100.00;95320.00;10401669;28;2540;-73
2024/04/02 21:35:37;;;;;;;;;;;;;;;7.83;100.00;95318.66;10417226;28;2812;-72
2024/04/02 21:40:39;;;;;;;;;;;;;;;7.95;100.00;95321.06;10434481;28;2905;-73
2024/04/02 21:45:41;;;;;;;;;;;;;;;7.76;100.00;95320.78;10414753;28;2839;-76
2024/04/02 21:50:43;;;;;;;;;;;;;;;7.49;100.00;95321.81;10419223;28;2768;-77
2024/04/02 21:55:46;;;;;;;;;;;;;;;7.21;100.00;95328.44;10401744;28;2913;-74
2024/04/02 22:00:47;;;;;;;;;;;;;;;7.11;100.00;95336.41;10419291;28;2772;-74
2024/04/02 22:05:49;;;;;;;;;;;;;;;7.01;100.00;95344.41;10415695;28;2793;-77
2024/04/02 22:10:51;;;;;;;;;;;;;;;6.93;100.00;95351.03;10385094;28;2776;-75
2024/04/02 22:15:53;;;;;;;;;;;;;;;6.86;100.00;95345.13;10404647;28;2832;-74
2024/04/02 22:20:56;;;;;;;;;;;;;;;6.72;100.00;95339.47;10413062;28;2547;-74
2024/04/02 22:25:57;;;;;;;;;;;;;;;6.74;100.00;95333.84;10413829;28;2764;-74
2024/04/02 22:30:59;;;;;;;;;;;;;;;6.76;100.00;95340.56;10410450;28;2877;-74
2024/04/02 22:36:00;;;;;;;;;;;;;;;6.74;100.00;95334.69;10409388;28;2753;-74
2024/04/02 22:41:02;;;;;;;;;;;;;;;6.62;100.00;95331.41;10394674;28;2916;-74
2024/04/02 22:46:03;;;;;;;;;;;;;;;6.56;100.00;95337.00;10414140;28;2644;-74
2024/04/02 22:51:05;;;;;;;;;;;;;;;6.49;100.00;95319.31;10415067;28;2861;-74
2024/04/02 22:56:08;;;;;;;;;;;;;;;6.45;100.00;95317.44;10409801;28;2824;-74
2024/04/02 23:01:09;;;;;;;;;;;;;;;6.35;100.00;95312.81;10412890;28;2852;-74
2024/04/02 23:06:11;;;;;;;;;;;;;;;6.30;100.00;95318.16;10428137;28;2869;-74
2024/04/02 23:11:13;;;;;;;;;;;;;;;6.27;100.00;95315.19;10428285;28;2800;-74
2024/04/02 23:16:16;;;;;;;;;;;;;;;6.27;100.00;95315.97;10410071;28;2812;-75
2024/04/02 23:21:17;;;;;;;;;;;;;;;6.23;100.00;95314.88;10408273;28;2965;-74
2024/04/02 23:26:19;;;;;;;;;;;;;;;6.22;100.00;95321.28;10392260;28;2804;-74
2024/04/02 23:31:21;;;;;;;;;;;;;;;6.15;100.00;95324.16;10405728;28;2822;-73
2024/04/02 23:36:27;;;;;;;;;;;;;;;6.12;100.00;95316.69;10386042;28;2635;-75
2024/04/02 23:41:29;;;;;;;;;;;;;;;6.04;100.00;95317.16;10409941;28;2581;-73
2024/04/02 23:46:31;;;;;;;;;;;;;;;6.11;100.00;95306.28;10410736;28;2834;-75
2024/04/02 23:51:33;;;;;;;;;;;;;;;6.12;100.00;95307.88;10412378;28;2808;-74
2024/04/02 23:56:34;;;;;;;;;;;;;;;6.01;100.00;95304.31;10431867;28;2788;-73
